createdAt,value
2022-09-09T00:01:03.728Z,97742.28
2022-09-09T00:03:47.508Z,97749.16
2022-09-09T00:06:28.394Z,97746.66
2022-09-09T00:09:10.558Z,97740.97
2022-09-09T00:11:47.605Z,97737.59
2022-09-09T00:14:30.289Z,97739.16
2022-09-09T00:17:08.000Z,97727.38
2022-09-09T00:19:51.491Z,97737.78
2022-09-09T00:22:24.800Z,97734.63
2022-09-09T00:24:57.677Z,97729.94
2022-09-09T00:27:38.288Z,97729.19
2022-09-09T00:30:23.628Z,97721.28
2022-09-09T00:32:59.435Z,97716.59
2022-09-09T00:35:37.097Z,97723.63
2022-09-09T00:38:17.032Z,97722.81
2022-09-09T00:40:55.468Z,97722.72
2022-09-09T00:43:34.134Z,97722.59
2022-09-09T00:46:36.157Z,97721.75
2022-09-09T00:49:23.650Z,97720.53
2022-09-09T00:52:19.478Z,97725.53
2022-09-09T00:54:58.996Z,97733.47
2022-09-09T00:57:33.526Z,97735.19
2022-09-09T01:00:22.901Z,97738.06
2022-09-09T01:03:11.403Z,97738.22
2022-09-09T01:05:55.567Z,97739.56
2022-09-09T01:08:50.168Z,97738.50
2022-09-09T01:11:27.216Z,97736.38
2022-09-09T01:14:15.426Z,97741.34
2022-09-09T01:16:48.001Z,97729.97
2022-09-09T01:19:34.747Z,97733.56
2022-09-09T01:22:18.016Z,97733.63
2022-09-09T01:25:33.037Z,97727.75
2022-09-09T01:28:20.942Z,97741.16
2022-09-09T01:30:51.325Z,97742.84
2022-09-09T01:33:24.772Z,97739.38
2022-09-09T01:36:01.662Z,97746.78
2022-09-09T01:38:38.385Z,97748.81
2022-09-09T01:41:08.973Z,97750.41
2022-09-09T01:44:00.940Z,97755.13
2022-09-09T01:46:33.508Z,97747.31
2022-09-09T01:49:08.957Z,97743.78
2022-09-09T01:51:41.815Z,97740.31
2022-09-09T01:54:15.130Z,97736.28
2022-09-09T01:57:02.161Z,97740.06
2022-09-09T01:59:56.204Z,97734.06
2022-09-09T02:02:37.132Z,97733.91
2022-09-09T02:05:30.664Z,97739.69
2022-09-09T02:08:10.848Z,97743.22
2022-09-09T02:11:02.740Z,97740.09
2022-09-09T02:13:45.528Z,97738.53
2022-09-09T02:16:29.902Z,97737.41
2022-09-09T02:19:09.962Z,97740.50
2022-09-09T02:21:57.642Z,97746.41
2022-09-09T02:24:29.993Z,97747.00
2022-09-09T02:27:15.645Z,97745.44
2022-09-09T02:29:48.490Z,97731.56
2022-09-09T02:32:28.058Z,97735.91
2022-09-09T02:35:04.170Z,97741.66
2022-09-09T02:37:40.158Z,97733.28
2022-09-09T02:40:16.320Z,97741.16
2022-09-09T02:42:52.612Z,97739.97
2022-09-09T02:45:29.691Z,97743.16
2022-09-09T02:48:17.870Z,97740.63
2022-09-09T02:50:59.993Z,97731.66
2022-09-09T02:53:47.396Z,97742.84
2022-09-09T02:56:23.053Z,97747.94
2022-09-09T02:58:55.491Z,97755.38
2022-09-09T03:01:25.738Z,97754.97
2022-09-09T03:03:58.783Z,97754.00
2022-09-09T03:06:29.275Z,97758.53
2022-09-09T03:09:09.046Z,97750.69
2022-09-09T03:11:39.438Z,97742.25
2022-09-09T03:14:12.385Z,97745.19
2022-09-09T03:16:44.078Z,97742.41
2022-09-09T03:19:17.315Z,97742.75
2022-09-09T03:21:47.341Z,97740.94
2022-09-09T03:24:17.795Z,97749.28
2022-09-09T03:26:48.371Z,97751.63
2022-09-09T03:29:21.217Z,97748.44
2022-09-09T03:31:51.687Z,97752.78
2022-09-09T03:34:24.467Z,97757.69
2022-09-09T03:36:54.487Z,97759.31
2022-09-09T03:39:24.439Z,97761.03
2022-09-09T03:41:54.530Z,97757.75
2022-09-09T03:44:25.227Z,97762.63
2022-09-09T03:46:55.189Z,97755.59
2022-09-09T03:49:29.578Z,97751.69
2022-09-09T03:52:02.113Z,97752.84
2022-09-09T03:54:33.101Z,97748.13
2022-09-09T03:57:03.062Z,97744.41
2022-09-09T03:59:33.075Z,97752.00
2022-09-09T04:02:03.661Z,97750.69
2022-09-09T04:04:36.216Z,97735.91
2022-09-09T04:07:07.930Z,97736.63
2022-09-09T04:09:38.305Z,97732.47
2022-09-09T04:12:08.929Z,97743.09
2022-09-09T04:14:39.061Z,97750.41
2022-09-09T04:17:10.320Z,97758.34
2022-09-09T04:19:43.471Z,97760.72
2022-09-09T04:22:14.209Z,97754.25
2022-09-09T04:24:48.542Z,97757.78
2022-09-09T04:27:19.412Z,97754.84
2022-09-09T04:29:49.584Z,97754.66
2022-09-09T04:32:19.943Z,97750.50
2022-09-09T04:34:52.661Z,97752.81
2022-09-09T04:37:22.843Z,97749.44
2022-09-09T04:39:52.948Z,97746.06
2022-09-09T04:42:23.233Z,97745.63
2022-09-09T04:44:53.219Z,97745.63
2022-09-09T04:47:23.192Z,97755.84
2022-09-09T04:49:55.967Z,97756.56
2022-09-09T04:52:26.207Z,97756.94
2022-09-09T04:54:56.289Z,97749.47
2022-09-09T04:57:26.351Z,97752.53
2022-09-09T04:59:56.279Z,97750.94
2022-09-09T05:02:29.726Z,97756.03
2022-09-09T05:05:04.051Z,97757.44
2022-09-09T05:07:34.126Z,97758.47
2022-09-09T05:10:05.721Z,97756.16
2022-09-09T05:12:36.323Z,97766.00
2022-09-09T05:15:08.162Z,97770.75
2022-09-09T05:17:38.181Z,97776.59
2022-09-09T05:20:17.176Z,97777.38
2022-09-09T05:22:47.759Z,97777.16
2022-09-09T05:25:18.471Z,97773.41
2022-09-09T05:27:48.422Z,97770.19
2022-09-09T05:30:19.929Z,97777.03
2022-09-09T05:32:50.086Z,97771.72
2022-09-09T05:35:24.149Z,97771.88
2022-09-09T05:37:54.201Z,97778.03
2022-09-09T05:40:24.741Z,97785.28
2022-09-09T05:42:55.048Z,97781.16
2022-09-09T05:45:25.038Z,97776.78
2022-09-09T05:47:56.794Z,97781.59
2022-09-09T05:50:31.609Z,97789.16
2022-09-09T05:53:02.323Z,97796.03
2022-09-09T05:55:32.929Z,97800.41
2022-09-09T05:58:03.041Z,97806.59
2022-09-09T06:00:33.351Z,97808.88
2022-09-09T06:03:04.567Z,97803.78
2022-09-09T06:05:37.155Z,97800.47
2022-09-09T06:08:08.368Z,97796.34
2022-09-09T06:10:38.518Z,97796.03
2022-09-09T06:13:08.878Z,97800.94
2022-09-09T06:15:38.910Z,97795.09
2022-09-09T06:18:08.873Z,97801.06
2022-09-09T06:20:41.410Z,97803.41
2022-09-09T06:23:11.487Z,97796.03
2022-09-09T06:25:41.767Z,97796.03
2022-09-09T06:28:12.241Z,97798.81
2022-09-09T06:30:42.353Z,97795.97
2022-09-09T06:33:12.989Z,97799.38
2022-09-09T06:35:46.060Z,97798.16
2022-09-09T06:38:16.122Z,97789.84
2022-09-09T06:40:46.350Z,97790.25
2022-09-09T06:43:16.782Z,97801.28
2022-09-09T06:45:59.109Z,97799.41
2022-09-09T06:48:30.194Z,97798.50
2022-09-09T06:51:12.804Z,97805.59
2022-09-09T06:53:45.823Z,97801.44
2022-09-09T06:56:25.496Z,97808.31
2022-09-09T06:58:59.387Z,97814.50
2022-09-09T07:01:35.566Z,97811.66
2022-09-09T07:04:10.529Z,97817.53
2022-09-09T07:06:47.331Z,97801.13
2022-09-09T07:09:25.232Z,97810.06
2022-09-09T07:11:59.138Z,97814.16
2022-09-09T07:14:30.389Z,97812.56
2022-09-09T07:17:04.114Z,97800.63
2022-09-09T07:19:39.409Z,97804.38
2022-09-09T07:22:12.393Z,97809.38
2022-09-09T07:24:43.016Z,97807.50
2022-09-09T07:27:13.154Z,97809.50
2022-09-09T07:29:44.036Z,97814.25
2022-09-09T07:32:14.335Z,97812.16
2022-09-09T07:34:44.289Z,97813.31
2022-09-09T07:37:18.057Z,97806.16
2022-09-09T07:39:49.191Z,97802.69
2022-09-09T07:42:21.240Z,97805.63
2022-09-09T07:44:55.857Z,97811.19
2022-09-09T07:47:25.881Z,97821.03
2022-09-09T07:49:56.960Z,97816.31
2022-09-09T07:52:34.810Z,97807.34
2022-09-09T07:55:08.555Z,97814.59
2022-09-09T07:57:38.999Z,97821.84
2022-09-09T08:00:11.815Z,97832.63
2022-09-09T08:02:47.754Z,97832.91
2022-09-09T08:05:19.227Z,97837.34
2022-09-09T08:07:52.333Z,97836.78
2022-09-09T08:10:22.415Z,97835.63
2022-09-09T08:13:14.642Z,97835.06
2022-09-09T08:15:45.090Z,97835.75
2022-09-09T08:18:15.222Z,97835.00
2022-09-09T08:20:45.475Z,97829.91
2022-09-09T08:23:18.377Z,97831.09
2022-09-09T08:25:49.848Z,97824.41
2022-09-09T08:28:20.102Z,97816.78
2022-09-09T08:30:50.104Z,97812.59
2022-09-09T08:33:20.534Z,97815.13
2022-09-09T08:35:55.000Z,97811.69
2022-09-09T08:38:28.145Z,97819.31
2022-09-09T08:41:20.228Z,97820.63
2022-09-09T08:43:54.627Z,97822.34
2022-09-09T08:46:37.369Z,97824.78
2022-09-09T08:49:28.906Z,97820.66
2022-09-09T08:52:00.929Z,97821.47
2022-09-09T08:54:51.714Z,97822.00
2022-09-09T08:57:30.306Z,97823.66
2022-09-09T09:00:01.959Z,97825.34
2022-09-09T09:02:50.365Z,97836.00
2022-09-09T09:05:32.925Z,97825.13
2022-09-09T09:08:16.449Z,97816.44
2022-09-09T09:10:54.426Z,97810.31
2022-09-09T09:13:43.058Z,97813.03
2022-09-09T09:16:28.625Z,97807.22
2022-09-09T09:18:59.832Z,97806.13
2022-09-09T09:21:43.261Z,97810.56
2022-09-09T09:24:22.973Z,97819.84
2022-09-09T09:26:57.959Z,97811.50
2022-09-09T09:29:30.244Z,97810.44
2022-09-09T09:32:07.136Z,97814.94
2022-09-09T09:34:37.315Z,97814.03
2022-09-09T09:37:21.693Z,97820.44
2022-09-09T09:40:07.529Z,97836.25
2022-09-09T09:42:41.083Z,97825.97
2022-09-09T09:45:25.055Z,97823.16
2022-09-09T09:48:07.315Z,97807.81
2022-09-09T09:50:51.937Z,97795.41
2022-09-09T09:53:27.618Z,97797.16
2022-09-09T09:56:02.679Z,97787.81
2022-09-09T09:58:42.715Z,97788.41
2022-09-09T10:01:25.974Z,97774.78
2022-09-09T10:03:58.695Z,97772.03
2022-09-09T10:06:39.356Z,97767.94
2022-09-09T10:09:27.735Z,97769.00
2022-09-09T10:12:12.620Z,97777.06
2022-09-09T10:14:55.898Z,97774.97
2022-09-09T10:17:40.589Z,97778.94
2022-09-09T10:20:36.801Z,97774.56
2022-09-09T10:23:26.324Z,97766.19
2022-09-09T10:26:18.466Z,97764.09
2022-09-09T10:29:22.443Z,97749.94
2022-09-09T10:32:09.675Z,97760.69
2022-09-09T10:34:58.987Z,97752.44
2022-09-09T10:37:50.177Z,97757.56
2022-09-09T10:40:35.317Z,97754.66
2022-09-09T10:43:21.694Z,97752.28
2022-09-09T10:46:07.804Z,97743.59
2022-09-09T10:49:07.315Z,97747.34
2022-09-09T10:51:50.681Z,97746.03
2022-09-09T10:54:46.177Z,97750.50
2022-09-09T10:57:33.102Z,97735.41
2022-09-09T11:00:09.635Z,97727.66
2022-09-09T11:02:43.061Z,97732.22
2022-09-09T11:05:24.529Z,97730.28
2022-09-09T11:08:04.818Z,97732.88
2022-09-09T11:10:48.210Z,97719.91
2022-09-09T11:13:27.091Z,97724.34
2022-09-09T11:16:05.231Z,97716.63
2022-09-09T11:18:43.715Z,97707.56
2022-09-09T11:21:31.140Z,97725.50
2022-09-09T11:24:10.783Z,97726.84
2022-09-09T11:26:50.811Z,97729.81
2022-09-09T11:30:08.668Z,97745.00
2022-09-09T11:33:13.623Z,97746.91
2022-09-09T11:36:10.049Z,97765.94
2022-09-09T11:38:52.296Z,97788.34
2022-09-09T11:41:25.717Z,97795.31
2022-09-09T11:43:56.809Z,97795.00
2022-09-09T11:46:39.522Z,97791.94
2022-09-09T11:49:32.458Z,97794.03
2022-09-09T11:52:02.481Z,97793.22
2022-09-09T11:54:48.466Z,97779.41
2022-09-09T11:57:34.314Z,97785.13
2022-09-09T12:00:04.636Z,97782.38
2022-09-09T12:02:53.551Z,97785.16
2022-09-09T12:05:24.554Z,97785.09
2022-09-09T12:08:00.772Z,97782.41
2022-09-09T12:10:37.125Z,97788.19
2022-09-09T12:13:21.651Z,97786.59
2022-09-09T12:15:54.724Z,97784.47
2022-09-09T12:18:29.537Z,97784.00
2022-09-09T12:21:11.423Z,97796.75
2022-09-09T12:23:51.276Z,97787.31
2022-09-09T12:26:37.128Z,97779.06
2022-09-09T12:29:28.767Z,97771.06
2022-09-09T12:32:09.351Z,97766.84
2022-09-09T12:34:44.663Z,97768.88
2022-09-09T12:37:27.709Z,97766.19
2022-09-09T12:40:01.482Z,97748.31
2022-09-09T12:42:41.035Z,97756.72
2022-09-09T12:45:23.021Z,97752.66
2022-09-09T12:47:58.108Z,97746.66
2022-09-09T12:50:34.851Z,97738.63
2022-09-09T12:53:11.653Z,97737.53
2022-09-09T12:55:52.970Z,97741.81
2022-09-09T12:58:26.114Z,97750.34
2022-09-09T13:00:58.907Z,97742.22
2022-09-09T13:03:29.928Z,97742.94
2022-09-09T13:06:15.401Z,97736.69
2022-09-09T13:08:45.437Z,97739.72
2022-09-09T13:11:21.136Z,97742.19
2022-09-09T13:14:01.568Z,97735.69
2022-09-09T13:16:37.640Z,97736.94
2022-09-09T13:19:17.877Z,97733.03
2022-09-09T13:21:48.112Z,97723.31
2022-09-09T13:24:35.805Z,97729.09
2022-09-09T13:27:26.191Z,97729.31
2022-09-09T13:29:59.794Z,97729.00
2022-09-09T13:32:32.107Z,97727.28
2022-09-09T13:35:04.618Z,97722.13
2022-09-09T13:37:39.805Z,97718.94
2022-09-09T13:40:22.656Z,97717.63
2022-09-09T13:42:59.846Z,97719.50
2022-09-09T13:45:34.762Z,97717.56
2022-09-09T13:48:14.658Z,97725.16
2022-09-09T13:50:45.313Z,97719.00
2022-09-09T13:53:15.275Z,97713.38
2022-09-09T13:55:47.377Z,97711.59
2022-09-09T13:58:22.676Z,97717.09
2022-09-09T14:00:55.905Z,97720.06
2022-09-09T14:03:25.880Z,97718.28
2022-09-09T14:05:56.645Z,97707.97
2022-09-09T14:08:38.103Z,97715.75
2022-09-09T14:11:08.409Z,97700.44
2022-09-09T14:13:38.607Z,97700.84
2022-09-09T14:16:11.207Z,97709.91
2022-09-09T14:18:41.805Z,97710.44
2022-09-09T14:21:12.334Z,97713.44
2022-09-09T14:23:42.590Z,97711.47
2022-09-09T14:26:12.782Z,97709.00
2022-09-09T14:28:54.767Z,97702.72
2022-09-09T14:31:28.410Z,97705.63
2022-09-09T14:33:58.646Z,97700.63
2022-09-09T14:36:28.947Z,97706.97
2022-09-09T14:38:59.513Z,97701.59
2022-09-09T14:41:30.552Z,97696.13
2022-09-09T14:44:00.916Z,97696.75
2022-09-09T14:46:34.324Z,97702.81
2022-09-09T14:49:04.768Z,97707.38
2022-09-09T14:51:35.259Z,97703.78
2022-09-09T14:54:05.669Z,97699.50
2022-09-09T14:56:38.964Z,97698.09
2022-09-09T14:59:08.958Z,97709.91
2022-09-09T15:01:41.547Z,97700.66
2022-09-09T15:04:11.565Z,97708.50
2022-09-09T15:06:43.480Z,97709.75
2022-09-09T15:09:13.665Z,97708.28
2022-09-09T15:11:45.320Z,97704.28
2022-09-09T15:14:15.789Z,97703.84
2022-09-09T15:16:48.303Z,97706.53
2022-09-09T15:19:18.231Z,97702.69
2022-09-09T15:21:48.557Z,97696.88
2022-09-09T15:24:18.562Z,97702.94
2022-09-09T15:26:50.032Z,97702.31
2022-09-09T15:29:20.542Z,97699.53
2022-09-09T15:31:53.054Z,97693.88
2022-09-09T15:34:23.058Z,97697.03
2022-09-09T15:36:53.015Z,97693.91
2022-09-09T15:39:23.706Z,97689.63
2022-09-09T15:41:53.689Z,97692.06
2022-09-09T15:44:26.420Z,97686.84
2022-09-09T15:46:58.953Z,97686.34
2022-09-09T15:49:30.077Z,97687.88
2022-09-09T15:52:04.309Z,97702.59
2022-09-09T15:54:39.829Z,97701.75
2022-09-09T15:57:13.378Z,97693.63
2022-09-09T15:59:44.303Z,97699.59
2022-09-09T16:02:16.870Z,97696.72
2022-09-09T16:04:46.809Z,97697.88
2022-09-09T16:07:17.228Z,97705.72
2022-09-09T16:09:47.235Z,97701.63
2022-09-09T16:12:17.317Z,97709.94
2022-09-09T16:14:47.336Z,97708.91
2022-09-09T16:17:21.503Z,97707.13
2022-09-09T16:19:51.639Z,97717.00
2022-09-09T16:22:21.607Z,97710.50
2022-09-09T16:24:51.558Z,97718.56
2022-09-09T16:27:21.509Z,97729.69
2022-09-09T16:29:51.452Z,97721.41
2022-09-09T16:32:23.983Z,97726.56
2022-09-09T16:34:54.005Z,97728.66
2022-09-09T16:37:23.941Z,97731.75
2022-09-09T16:39:54.718Z,97724.81
2022-09-09T16:42:24.728Z,97724.00
2022-09-09T16:44:54.709Z,97735.94
2022-09-09T16:47:27.343Z,97740.06
2022-09-09T16:49:57.888Z,97740.06
2022-09-09T16:52:27.899Z,97742.41
2022-09-09T16:54:57.835Z,97752.25
2022-09-09T16:57:31.421Z,97763.38
2022-09-09T17:00:02.147Z,97766.50
2022-09-09T17:02:34.651Z,97775.31
2022-09-09T17:05:04.685Z,97773.47
2022-09-09T17:07:34.622Z,97770.09
2022-09-09T17:10:04.554Z,97769.78
2022-09-09T17:12:38.753Z,97768.69
2022-09-09T17:15:13.195Z,97765.00
2022-09-09T17:17:50.077Z,97768.53
2022-09-09T17:20:20.316Z,97767.72
2022-09-09T17:22:50.327Z,97765.06
2022-09-09T17:25:20.622Z,97756.75
2022-09-09T17:27:51.183Z,97767.28
2022-09-09T17:30:21.302Z,97758.09
2022-09-09T17:32:53.871Z,97762.44
2022-09-09T17:35:23.804Z,97754.34
2022-09-09T17:37:53.814Z,97762.44
2022-09-09T17:40:24.049Z,97758.50
2022-09-09T17:42:54.025Z,97764.84
2022-09-09T17:45:24.348Z,97766.66
2022-09-09T17:47:58.646Z,97772.19
2022-09-09T17:50:28.601Z,97776.78
2022-09-09T17:52:58.621Z,97783.94
2022-09-09T17:55:28.585Z,97789.47
2022-09-09T17:57:59.526Z,97798.03
2022-09-09T18:00:31.237Z,97806.78
2022-09-09T18:03:03.901Z,97803.72
2022-09-09T18:05:34.117Z,97812.41
2022-09-09T18:08:04.271Z,97808.75
2022-09-09T18:10:34.200Z,97808.41
2022-09-09T18:13:04.782Z,97809.06
2022-09-09T18:15:48.843Z,97813.72
2022-09-09T18:18:22.378Z,97811.25
2022-09-09T18:21:01.970Z,97812.72
2022-09-09T18:23:32.595Z,97816.72
2022-09-09T18:26:02.730Z,97814.06
2022-09-09T18:28:32.671Z,97821.22
2022-09-09T18:31:02.795Z,97819.66
2022-09-09T18:33:38.702Z,97821.78
2022-09-09T18:36:11.482Z,97821.13
2022-09-09T18:38:42.053Z,97816.53
2022-09-09T18:41:21.527Z,97822.91
2022-09-09T18:43:53.353Z,97825.88
2022-09-09T18:46:24.982Z,97824.50
2022-09-09T18:48:58.392Z,97825.97
2022-09-09T18:51:33.518Z,97837.75
2022-09-09T18:54:09.465Z,97848.44
2022-09-09T18:56:39.917Z,97845.88
2022-09-09T18:59:13.998Z,97839.00
2022-09-09T19:01:45.608Z,97850.28
2022-09-09T19:04:19.298Z,97846.47
2022-09-09T19:06:57.731Z,97845.78
2022-09-09T19:09:32.481Z,97852.94
2022-09-09T19:12:03.996Z,97848.66
2022-09-09T19:14:34.126Z,97851.78
2022-09-09T19:17:04.095Z,97847.28
2022-09-09T19:19:37.093Z,97844.63
2022-09-09T19:22:11.694Z,97849.59
2022-09-09T19:24:41.612Z,97839.13
2022-09-09T19:27:11.598Z,97845.38
2022-09-09T19:29:43.204Z,97857.09
2022-09-09T19:35:06.909Z,97852.53
2022-09-09T19:37:36.882Z,97857.66
2022-09-09T19:40:11.317Z,97857.66
2022-09-09T19:42:41.531Z,97863.91
2022-09-09T19:45:12.678Z,97870.13
2022-09-09T19:47:43.943Z,97874.91
2022-09-09T19:50:16.986Z,97881.72
2022-09-09T19:52:47.285Z,97878.97
2022-09-09T19:55:17.751Z,97883.22
2022-09-09T19:57:47.703Z,97878.53
2022-09-09T20:00:19.500Z,97886.03
2022-09-09T20:03:15.286Z,97879.19
2022-09-09T20:05:43.758Z,97885.69
2022-09-09T20:08:13.728Z,97888.03
2022-09-09T20:10:44.245Z,97885.00
2022-09-09T20:13:14.341Z,97883.66
2022-09-09T20:15:44.321Z,97879.28
2022-09-09T20:18:14.260Z,97889.53
2022-09-09T20:20:47.116Z,97892.22
2022-09-09T20:23:18.705Z,97893.97
2022-09-09T20:25:48.691Z,97890.56
2022-09-09T20:28:19.021Z,97888.66
2022-09-09T20:30:49.046Z,97899.91
2022-09-09T20:33:19.043Z,97902.91
2022-09-09T20:35:53.986Z,97903.78
2022-09-09T20:38:23.909Z,97905.31
2022-09-09T20:40:53.814Z,97912.16
2022-09-09T20:43:23.767Z,97906.97
2022-09-09T20:45:57.558Z,97910.13
2022-09-09T20:48:28.166Z,97915.75
2022-09-09T20:51:06.712Z,97923.03
2022-09-09T20:53:36.873Z,97921.19
2022-09-09T20:56:07.902Z,97920.75
2022-09-09T20:58:39.129Z,97920.44
2022-09-09T21:01:09.688Z,97917.88
2022-09-09T21:03:40.171Z,97916.19
2022-09-09T21:06:14.635Z,97921.66
2022-09-09T21:08:45.778Z,97925.66
2022-09-09T21:11:17.247Z,97922.09
2022-09-09T21:13:48.065Z,97930.72
2022-09-09T21:16:21.270Z,97927.00
2022-09-09T21:18:52.045Z,97916.97
2022-09-09T21:21:26.183Z,97923.19
2022-09-09T21:24:00.634Z,97922.63
2022-09-09T21:26:31.129Z,97920.91
2022-09-09T21:29:01.200Z,97924.78
2022-09-09T21:31:31.547Z,97922.38
2022-09-09T21:34:02.248Z,97923.56
2022-09-09T21:36:34.808Z,97918.28
2022-09-09T21:39:04.732Z,97925.97
2022-09-09T21:41:34.749Z,97919.88
2022-09-09T21:44:05.483Z,97922.84
2022-09-09T21:46:37.586Z,97917.41
2022-09-09T21:49:07.594Z,97921.41
2022-09-09T21:51:40.304Z,97923.91
2022-09-09T21:54:10.261Z,97920.25
2022-09-09T21:56:40.277Z,97926.75
2022-09-09T21:59:10.424Z,97922.88
2022-09-09T22:01:41.847Z,97928.63
2022-09-09T22:04:11.850Z,97925.69
2022-09-09T22:06:44.355Z,97924.72
2022-09-09T22:09:14.329Z,97926.91
2022-09-09T22:11:44.570Z,97924.56
2022-09-09T22:14:14.591Z,97913.38
2022-09-09T22:16:44.542Z,97917.31
2022-09-09T22:19:15.252Z,97922.56
2022-09-09T22:21:47.927Z,97918.88
2022-09-09T22:24:18.018Z,97914.31
2022-09-09T22:26:48.007Z,97917.31
2022-09-09T22:29:17.951Z,97922.44
2022-09-09T22:31:47.913Z,97922.69
2022-09-09T22:34:18.306Z,97928.31
2022-09-09T22:36:52.339Z,97926.53
2022-09-09T22:39:22.302Z,97925.97
2022-09-09T22:41:52.410Z,97928.50
2022-09-09T22:44:23.075Z,97926.13
2022-09-09T22:46:53.425Z,97926.88
2022-09-09T22:49:23.434Z,97927.16
2022-09-09T22:51:56.692Z,97928.69
2022-09-09T22:54:27.063Z,97927.53
2022-09-09T22:56:57.065Z,97931.53
2022-09-09T22:59:27.047Z,97944.75
2022-09-09T23:01:57.487Z,97943.63
2022-09-09T23:04:27.576Z,97947.81
2022-09-09T23:07:00.995Z,97943.09
2022-09-09T23:09:31.495Z,97950.84
2022-09-09T23:12:01.943Z,97948.44
2022-09-09T23:14:32.118Z,97957.59
2022-09-09T23:17:02.346Z,97958.31
2022-09-09T23:19:32.602Z,97946.63
2022-09-09T23:22:05.478Z,97963.81
2022-09-09T23:24:36.011Z,97963.50
2022-09-09T23:27:06.309Z,97966.53
2022-09-09T23:29:36.246Z,97966.34
2022-09-09T23:32:06.594Z,97975.06
2022-09-09T23:34:38.121Z,97968.31
2022-09-09T23:37:11.715Z,97960.34
2022-09-09T23:39:42.217Z,97957.44
2022-09-09T23:42:14.112Z,97959.38
2022-09-09T23:44:44.151Z,97963.13
2022-09-09T23:47:14.119Z,97955.72
2022-09-09T23:49:44.488Z,97956.16
2022-09-09T23:52:17.959Z,97954.56
2022-09-09T23:54:49.559Z,97953.78
2022-09-09T23:57:19.537Z,97954.81
2022-09-09T23:59:49.554Z,97954.97
